createdAt,value
2023-03-19T00:00:32.432Z,65.62
2023-03-19T00:02:59.080Z,65.31
2023-03-19T00:05:26.006Z,65.50
2023-03-19T00:07:52.503Z,65.46
2023-03-19T00:10:22.300Z,65.38
2023-03-19T00:12:48.805Z,65.66
2023-03-19T00:15:15.996Z,65.61
2023-03-19T00:17:43.418Z,65.60
2023-03-19T00:20:12.222Z,65.47
2023-03-19T00:22:39.978Z,65.45
2023-03-19T00:25:08.369Z,65.68
2023-03-19T00:27:36.369Z,65.45
2023-03-19T00:30:04.821Z,65.36
2023-03-19T00:32:33.567Z,65.39
2023-03-19T00:35:00.190Z,65.19
2023-03-19T00:37:27.457Z,64.98
2023-03-19T00:39:54.050Z,65.06
2023-03-19T00:42:20.551Z,64.92
2023-03-19T00:44:47.182Z,64.88
2023-03-19T00:47:13.681Z,64.90
2023-03-19T00:49:40.218Z,65.03
2023-03-19T00:52:06.872Z,65.25
2023-03-19T00:54:34.573Z,65.05
2023-03-19T00:57:01.276Z,65.19
2023-03-19T00:59:27.877Z,65.29
2023-03-19T01:01:54.425Z,65.28
2023-03-19T01:04:21.723Z,65.16
2023-03-19T01:06:48.243Z,65.26
2023-03-19T01:09:14.980Z,65.36
2023-03-19T01:11:41.639Z,65.31
2023-03-19T01:14:08.162Z,65.46
2023-03-19T01:16:34.835Z,65.41
2023-03-19T01:19:03.165Z,65.35
2023-03-19T01:21:31.062Z,65.45
2023-03-19T01:23:58.776Z,65.45
2023-03-19T01:26:25.546Z,65.02
2023-03-19T01:28:52.450Z,65.44
2023-03-19T01:34:01.674Z,65.65
2023-03-19T01:36:28.076Z,65.77
2023-03-19T01:38:54.376Z,65.75
2023-03-19T01:41:20.942Z,65.94
2023-03-19T01:43:47.331Z,65.82
2023-03-19T01:46:27.070Z,65.94
2023-03-19T01:48:58.195Z,66.01
2023-03-19T01:51:28.447Z,65.94
2023-03-19T01:54:00.877Z,65.88
2023-03-19T01:56:32.652Z,65.85
2023-03-19T01:59:04.567Z,65.66
2023-03-19T02:01:35.871Z,65.76
2023-03-19T02:04:03.493Z,65.56
2023-03-19T02:06:30.839Z,65.84
2023-03-19T02:08:58.657Z,65.90
2023-03-19T02:11:26.151Z,65.94
2023-03-19T02:13:53.070Z,65.87
2023-03-19T02:16:19.671Z,65.97
2023-03-19T02:18:47.673Z,65.62
2023-03-19T02:21:19.903Z,65.66
2023-03-19T02:24:01.493Z,65.68
2023-03-19T02:26:29.737Z,65.40
2023-03-19T02:28:56.871Z,65.49
2023-03-19T02:31:24.096Z,65.43
2023-03-19T02:34:06.535Z,65.30
2023-03-19T02:36:37.686Z,65.30
2023-03-19T02:39:07.469Z,65.09
2023-03-19T02:41:34.352Z,65.28
2023-03-19T02:44:04.255Z,65.07
2023-03-19T02:46:30.840Z,64.96
2023-03-19T02:48:57.211Z,64.95
2023-03-19T02:51:23.613Z,64.69
2023-03-19T02:53:50.293Z,64.80
2023-03-19T02:56:16.668Z,64.76
2023-03-19T02:58:43.048Z,64.76
2023-03-19T03:01:09.479Z,64.53
2023-03-19T03:03:35.846Z,64.37
2023-03-19T03:06:02.272Z,64.51
2023-03-19T03:08:28.723Z,64.69
2023-03-19T03:10:55.056Z,64.44
2023-03-19T03:13:21.978Z,64.71
2023-03-19T03:15:48.480Z,64.65
2023-03-19T03:18:14.872Z,64.85
2023-03-19T03:20:41.750Z,64.59
2023-03-19T03:23:08.121Z,64.90
2023-03-19T03:25:35.945Z,64.91
2023-03-19T03:28:02.376Z,65.06
2023-03-19T03:30:29.148Z,65.00
2023-03-19T03:32:55.571Z,65.11
2023-03-19T03:35:22.622Z,65.07
2023-03-19T03:37:50.207Z,65.09
2023-03-19T03:40:17.078Z,65.19
2023-03-19T03:42:44.216Z,65.17
2023-03-19T03:45:12.086Z,65.15
2023-03-19T03:47:39.510Z,65.35
2023-03-19T03:50:07.079Z,65.55
2023-03-19T03:52:34.108Z,65.58
2023-03-19T03:55:01.130Z,65.45
2023-03-19T03:57:27.486Z,65.61
2023-03-19T03:59:54.546Z,65.53
2023-03-19T04:02:21.535Z,65.50
2023-03-19T04:04:48.706Z,65.51
2023-03-19T04:07:15.160Z,65.68
2023-03-19T04:09:42.042Z,65.82
2023-03-19T04:12:08.616Z,65.74
2023-03-19T04:14:36.553Z,65.83
2023-03-19T04:17:03.003Z,65.73
2023-03-19T04:19:29.556Z,65.79
2023-03-19T04:21:55.953Z,65.90
2023-03-19T04:24:22.285Z,65.82
2023-03-19T04:26:49.680Z,65.87
2023-03-19T04:29:16.629Z,65.96
2023-03-19T04:31:42.985Z,66.06
2023-03-19T04:34:09.339Z,65.89
2023-03-19T04:36:35.695Z,65.94
2023-03-19T04:39:02.069Z,65.91
2023-03-19T04:41:28.420Z,65.90
2023-03-19T04:43:54.780Z,66.00
2023-03-19T04:46:21.217Z,66.17
2023-03-19T04:48:47.636Z,66.07
2023-03-19T04:51:14.857Z,66.12
2023-03-19T04:53:41.231Z,66.17
2023-03-19T04:56:08.038Z,66.38
2023-03-19T04:58:35.169Z,66.30
2023-03-19T05:01:01.639Z,66.44
2023-03-19T05:03:28.087Z,66.36
2023-03-19T05:05:55.118Z,66.34
2023-03-19T05:08:21.543Z,66.42
2023-03-19T05:10:48.005Z,66.31
2023-03-19T05:13:14.355Z,66.45
2023-03-19T05:15:45.046Z,66.43
2023-03-19T05:18:12.705Z,66.28
2023-03-19T05:20:39.835Z,66.55
2023-03-19T05:23:06.612Z,66.14
2023-03-19T05:25:35.172Z,66.13
2023-03-19T05:28:02.097Z,66.40
2023-03-19T05:30:28.503Z,66.32
2023-03-19T05:32:58.395Z,66.63
2023-03-19T05:35:26.335Z,66.49
2023-03-19T05:37:52.763Z,66.53
2023-03-19T05:40:19.308Z,66.61
2023-03-19T05:42:45.834Z,66.68
2023-03-19T05:45:12.395Z,66.58
2023-03-19T05:47:39.217Z,66.57
2023-03-19T05:50:07.487Z,66.51
2023-03-19T05:52:34.205Z,66.70
2023-03-19T05:55:00.563Z,66.66
2023-03-19T05:57:27.241Z,66.55
2023-03-19T05:59:53.595Z,66.68
2023-03-19T06:02:20.421Z,66.78
2023-03-19T06:04:46.783Z,66.48
2023-03-19T06:07:13.432Z,66.89
2023-03-19T06:09:41.047Z,66.67
2023-03-19T06:12:08.292Z,66.74
2023-03-19T06:14:34.616Z,66.77
2023-03-19T06:17:01.086Z,66.86
2023-03-19T06:19:27.753Z,66.75
2023-03-19T06:21:54.179Z,66.65
2023-03-19T06:24:20.633Z,66.57
2023-03-19T06:26:47.066Z,66.46
2023-03-19T06:29:13.527Z,66.63
2023-03-19T06:31:41.585Z,66.53
2023-03-19T06:34:08.316Z,66.83
2023-03-19T06:36:34.733Z,66.25
2023-03-19T06:39:01.478Z,66.40
2023-03-19T06:41:27.828Z,66.46
2023-03-19T06:43:54.232Z,66.26
2023-03-19T06:46:20.721Z,66.13
2023-03-19T06:48:48.638Z,66.33
2023-03-19T06:51:14.981Z,66.21
2023-03-19T06:53:41.348Z,66.44
2023-03-19T06:56:07.768Z,66.16
2023-03-19T06:58:35.702Z,66.22
2023-03-19T07:01:02.348Z,66.24
2023-03-19T07:03:28.754Z,66.06
2023-03-19T07:05:55.151Z,66.00
2023-03-19T07:08:21.528Z,66.17
2023-03-19T07:10:48.066Z,66.06
2023-03-19T07:13:14.675Z,66.16
2023-03-19T07:15:41.308Z,66.17
2023-03-19T07:18:07.715Z,65.98
2023-03-19T07:20:34.312Z,66.28
2023-03-19T07:23:00.888Z,66.16
2023-03-19T07:25:27.350Z,66.05
2023-03-19T07:27:56.020Z,66.17
2023-03-19T07:30:22.751Z,66.34
2023-03-19T07:35:35.250Z,66.65
2023-03-19T07:38:02.673Z,66.59
2023-03-19T07:40:29.513Z,66.58
2023-03-19T07:42:56.010Z,66.82
2023-03-19T07:45:23.778Z,66.75
2023-03-19T07:47:51.574Z,66.89
2023-03-19T07:50:18.358Z,66.91
2023-03-19T07:52:48.354Z,66.89
2023-03-19T07:55:15.656Z,67.02
2023-03-19T07:57:42.190Z,66.95
2023-03-19T08:00:10.634Z,66.82
2023-03-19T08:02:37.227Z,66.95
2023-03-19T08:05:04.784Z,67.13
2023-03-19T08:07:32.357Z,67.36
2023-03-19T08:09:59.158Z,67.32
2023-03-19T08:12:26.137Z,67.08
2023-03-19T08:14:52.938Z,66.93
2023-03-19T08:17:19.527Z,66.83
2023-03-19T08:19:46.789Z,66.87
2023-03-19T08:22:13.575Z,66.71
2023-03-19T08:24:40.169Z,66.46
2023-03-19T08:27:07.841Z,66.38
2023-03-19T08:29:34.494Z,65.97
2023-03-19T08:32:01.440Z,66.20
2023-03-19T08:34:27.943Z,65.92
2023-03-19T08:36:54.426Z,65.65
2023-03-19T08:39:20.974Z,65.92
2023-03-19T08:41:47.419Z,66.04
2023-03-19T08:44:14.149Z,66.05
2023-03-19T08:46:42.362Z,65.98
2023-03-19T08:49:08.880Z,65.66
2023-03-19T08:51:35.351Z,65.67
2023-03-19T08:54:02.286Z,65.95
2023-03-19T08:56:28.790Z,65.93
2023-03-19T08:58:56.922Z,66.03
2023-03-19T09:01:24.331Z,66.17
2023-03-19T09:03:51.166Z,66.58
2023-03-19T09:06:17.775Z,66.92
2023-03-19T09:08:44.717Z,67.13
2023-03-19T09:11:11.604Z,66.90
2023-03-19T09:13:38.030Z,66.87
2023-03-19T09:16:04.856Z,66.36
2023-03-19T09:18:31.418Z,66.25
2023-03-19T09:20:58.291Z,66.40
2023-03-19T09:23:24.978Z,66.40
2023-03-19T09:25:51.474Z,66.64
2023-03-19T09:28:18.394Z,66.73
2023-03-19T09:30:49.878Z,67.05
2023-03-19T09:33:23.017Z,67.03
2023-03-19T09:35:52.648Z,67.17
2023-03-19T09:38:21.012Z,67.18
2023-03-19T09:41:04.814Z,67.06
2023-03-19T09:43:42.333Z,67.35
2023-03-19T09:46:24.486Z,68.04
2023-03-19T09:48:57.462Z,68.15
2023-03-19T09:51:44.989Z,68.21
2023-03-19T09:54:39.325Z,68.29
2023-03-19T09:57:08.866Z,67.94
2023-03-19T09:59:35.894Z,67.55
2023-03-19T10:02:40.795Z,67.27
2023-03-19T10:05:21.269Z,67.18
2023-03-19T10:08:01.402Z,66.47
2023-03-19T10:10:57.556Z,66.42
2023-03-19T10:13:58.542Z,66.00
2023-03-19T10:16:27.786Z,65.94
2023-03-19T10:18:59.931Z,65.72
2023-03-19T10:21:39.856Z,66.08
2023-03-19T10:24:22.472Z,66.09
2023-03-19T10:26:55.780Z,66.88
2023-03-19T10:29:24.281Z,67.60
2023-03-19T10:32:19.046Z,67.18
2023-03-19T10:34:51.078Z,67.86
2023-03-19T10:37:23.736Z,67.58
2023-03-19T10:39:52.651Z,68.25
2023-03-19T10:42:43.426Z,67.40
2023-03-19T10:45:28.463Z,66.54
2023-03-19T10:47:59.676Z,67.32
2023-03-19T10:50:34.526Z,66.43
2023-03-19T10:53:04.404Z,65.84
2023-03-19T10:55:31.813Z,65.14
2023-03-19T10:58:20.628Z,62.93
2023-03-19T11:00:48.754Z,63.76
2023-03-19T11:03:36.070Z,62.12
2023-03-19T11:06:23.742Z,61.42
2023-03-19T11:08:57.038Z,62.07
2023-03-19T11:11:26.471Z,62.29
2023-03-19T11:13:53.234Z,62.88
2023-03-19T11:16:19.926Z,62.97
2023-03-19T11:18:49.691Z,62.72
2023-03-19T11:21:28.968Z,62.11
2023-03-19T11:24:03.640Z,61.74
2023-03-19T11:26:31.069Z,63.25
2023-03-19T11:29:03.652Z,62.59
2023-03-19T11:31:54.363Z,62.48
2023-03-19T11:34:23.624Z,63.08
2023-03-19T11:37:10.340Z,61.34
2023-03-19T11:39:54.031Z,60.70
2023-03-19T11:42:32.567Z,60.74
2023-03-19T11:45:26.147Z,60.93
2023-03-19T11:48:01.591Z,60.80
2023-03-19T11:50:39.953Z,61.36
2023-03-19T11:53:24.742Z,60.68
2023-03-19T11:56:19.662Z,61.09
2023-03-19T11:59:05.622Z,60.53
2023-03-19T12:01:50.958Z,61.08
2023-03-19T12:04:47.434Z,60.97
2023-03-19T12:07:19.533Z,62.00
2023-03-19T12:09:49.523Z,62.81
2023-03-19T12:12:40.953Z,63.88
2023-03-19T12:15:17.165Z,65.26
2023-03-19T12:17:54.612Z,68.36
2023-03-19T12:20:27.732Z,65.11
2023-03-19T12:23:36.171Z,61.68
2023-03-19T12:26:07.101Z,57.74
2023-03-19T12:28:36.320Z,54.21
2023-03-19T12:31:27.970Z,50.66
2023-03-19T12:34:20.802Z,51.16
2023-03-19T12:37:09.128Z,51.50
2023-03-19T12:39:41.169Z,50.38
2023-03-19T12:42:13.399Z,49.22
2023-03-19T12:44:46.584Z,48.81
2023-03-19T12:47:31.469Z,47.86
2023-03-19T12:50:06.107Z,47.61
2023-03-19T12:52:38.682Z,47.67
2023-03-19T12:55:23.209Z,47.83
2023-03-19T12:58:00.114Z,47.77
2023-03-19T13:00:51.685Z,47.47
2023-03-19T13:03:53.397Z,48.21
2023-03-19T13:06:37.531Z,49.47
2023-03-19T13:09:29.055Z,49.17
2023-03-19T13:12:05.124Z,50.50
2023-03-19T13:15:02.486Z,50.42
2023-03-19T13:17:53.511Z,50.87
2023-03-19T13:20:26.028Z,51.34
2023-03-19T13:22:59.997Z,51.54
2023-03-19T13:25:50.654Z,51.41
2023-03-19T13:28:38.543Z,52.09
2023-03-19T13:31:06.760Z,53.11
2023-03-19T13:33:40.627Z,52.85
2023-03-19T13:36:14.919Z,53.81
2023-03-19T13:38:46.113Z,53.77
2023-03-19T13:41:39.534Z,53.69
2023-03-19T13:44:24.505Z,54.25
2023-03-19T13:46:51.397Z,54.64
2023-03-19T13:49:28.386Z,53.13
2023-03-19T13:51:58.614Z,54.26
2023-03-19T13:54:43.504Z,54.16
2023-03-19T13:57:17.167Z,54.21
2023-03-19T13:59:46.848Z,54.92
2023-03-19T14:02:15.951Z,54.44
2023-03-19T14:04:52.263Z,54.25
2023-03-19T14:07:22.590Z,55.06
2023-03-19T14:10:04.559Z,54.70
2023-03-19T14:12:34.879Z,55.11
2023-03-19T14:15:18.277Z,54.32
2023-03-19T14:17:56.505Z,52.82
2023-03-19T14:20:36.629Z,54.39
2023-03-19T14:23:09.109Z,53.71
2023-03-19T14:25:54.154Z,54.08
2023-03-19T14:28:27.289Z,54.65
2023-03-19T14:30:55.923Z,55.26
2023-03-19T14:33:44.679Z,54.67
2023-03-19T14:36:18.006Z,54.26
2023-03-19T14:39:00.621Z,54.61
2023-03-19T14:41:32.474Z,56.27
2023-03-19T14:44:27.228Z,56.97
2023-03-19T14:47:30.433Z,54.53
2023-03-19T14:50:27.510Z,54.10
2023-03-19T14:53:03.206Z,53.29
2023-03-19T14:55:35.782Z,53.40
2023-03-19T14:58:02.724Z,54.92
2023-03-19T15:00:37.106Z,55.51
2023-03-19T15:03:03.566Z,54.86
2023-03-19T15:05:33.326Z,52.44
2023-03-19T15:08:07.395Z,50.51
2023-03-19T15:11:02.432Z,50.16
2023-03-19T15:13:50.932Z,46.12
2023-03-19T15:16:17.344Z,48.77
2023-03-19T15:18:43.831Z,46.91
2023-03-19T15:21:10.493Z,45.66
2023-03-19T15:23:40.387Z,44.41
2023-03-19T15:26:11.482Z,46.03
2023-03-19T15:28:54.000Z,44.56
2023-03-19T15:31:38.266Z,45.41
2023-03-19T15:34:24.537Z,43.87
2023-03-19T15:36:55.516Z,44.44
2023-03-19T15:39:27.214Z,44.93
2023-03-19T15:41:56.267Z,44.80
2023-03-19T15:44:36.355Z,43.42
2023-03-19T15:47:05.140Z,44.47
2023-03-19T15:49:38.271Z,44.14
2023-03-19T15:52:09.417Z,44.90
2023-03-19T15:54:35.884Z,45.96
2023-03-19T15:57:02.356Z,46.26
2023-03-19T15:59:31.449Z,46.35
2023-03-19T16:02:03.025Z,45.97
2023-03-19T16:04:30.520Z,47.28
2023-03-19T16:06:59.204Z,47.62
2023-03-19T16:09:27.082Z,47.93
2023-03-19T16:11:57.717Z,47.90
2023-03-19T16:14:33.401Z,47.78
2023-03-19T16:17:13.376Z,47.95
2023-03-19T16:19:55.955Z,48.48
2023-03-19T16:22:25.513Z,48.63
2023-03-19T16:24:53.820Z,49.46
2023-03-19T16:27:25.794Z,49.72
2023-03-19T16:29:59.754Z,49.70
2023-03-19T16:32:31.605Z,50.33
2023-03-19T16:35:10.803Z,50.08
2023-03-19T16:37:37.308Z,50.10
2023-03-19T16:40:13.018Z,50.06
2023-03-19T16:42:43.035Z,50.65
2023-03-19T16:45:18.115Z,50.92
2023-03-19T16:47:48.642Z,51.53
2023-03-19T16:50:17.420Z,51.75
2023-03-19T16:52:45.656Z,52.11
2023-03-19T16:55:19.594Z,52.14
2023-03-19T16:57:50.578Z,52.25
2023-03-19T17:00:17.963Z,52.59
2023-03-19T17:02:44.360Z,52.64
2023-03-19T17:05:14.912Z,52.36
2023-03-19T17:07:41.978Z,52.82
2023-03-19T17:10:17.072Z,52.71
2023-03-19T17:12:47.088Z,52.81
2023-03-19T17:15:23.064Z,52.84
2023-03-19T17:17:50.361Z,52.84
2023-03-19T17:20:38.242Z,53.02
2023-03-19T17:23:12.822Z,53.17
2023-03-19T17:25:39.843Z,53.35
2023-03-19T17:28:06.544Z,53.29
2023-03-19T17:30:33.875Z,53.51
2023-03-19T17:33:00.741Z,53.74
2023-03-19T17:35:27.260Z,53.96
2023-03-19T17:37:53.608Z,54.30
2023-03-19T17:40:27.334Z,54.18
2023-03-19T17:42:55.252Z,54.38
2023-03-19T17:45:27.438Z,54.20
2023-03-19T17:47:58.488Z,54.33
2023-03-19T17:50:31.398Z,54.40
2023-03-19T17:52:58.750Z,54.63
2023-03-19T17:55:28.231Z,54.38
2023-03-19T17:57:55.223Z,54.47
2023-03-19T18:00:23.904Z,54.45
2023-03-19T18:02:52.905Z,54.64
2023-03-19T18:05:26.287Z,54.71
2023-03-19T18:07:56.219Z,54.78
2023-03-19T18:10:27.424Z,54.84
2023-03-19T18:12:54.609Z,55.02
2023-03-19T18:15:22.155Z,55.31
2023-03-19T18:17:51.670Z,55.11
2023-03-19T18:20:21.271Z,55.24
2023-03-19T18:22:47.640Z,55.15
2023-03-19T18:25:20.923Z,55.30
2023-03-19T18:27:48.057Z,55.42
2023-03-19T18:30:18.494Z,55.85
2023-03-19T18:32:47.813Z,55.90
2023-03-19T18:35:16.306Z,56.10
2023-03-19T18:37:44.804Z,56.31
2023-03-19T18:40:20.255Z,56.72
2023-03-19T18:42:47.899Z,56.79
2023-03-19T18:45:15.795Z,57.08
2023-03-19T18:47:43.502Z,57.34
2023-03-19T18:50:12.853Z,57.79
2023-03-19T18:52:39.162Z,57.77
2023-03-19T18:55:05.901Z,58.01
2023-03-19T18:57:35.688Z,58.34
2023-03-19T19:00:02.174Z,58.19
2023-03-19T19:02:34.972Z,58.93
2023-03-19T19:05:01.663Z,58.52
2023-03-19T19:07:28.005Z,58.60
2023-03-19T19:09:54.431Z,58.88
2023-03-19T19:12:21.032Z,58.78
2023-03-19T19:14:47.844Z,58.82
2023-03-19T19:17:21.037Z,59.11
2023-03-19T19:19:47.406Z,59.06
2023-03-19T19:22:18.450Z,59.12
2023-03-19T19:24:45.153Z,58.75
2023-03-19T19:27:25.853Z,59.54
2023-03-19T19:29:53.056Z,59.08
2023-03-19T19:32:26.774Z,59.61
2023-03-19T19:37:24.951Z,59.53
2023-03-19T19:39:51.502Z,59.88
2023-03-19T19:42:21.181Z,60.26
2023-03-19T19:44:52.772Z,60.59
2023-03-19T19:47:19.450Z,60.26
2023-03-19T19:49:46.218Z,60.52
2023-03-19T19:52:18.334Z,60.59
2023-03-19T19:54:46.227Z,60.35
2023-03-19T19:57:27.304Z,60.69
2023-03-19T19:59:55.385Z,60.46
2023-03-19T20:02:31.636Z,60.73
2023-03-19T20:04:58.986Z,60.57
2023-03-19T20:07:25.671Z,60.44
2023-03-19T20:09:52.107Z,60.45
2023-03-19T20:12:27.046Z,60.51
2023-03-19T20:14:53.546Z,60.08
2023-03-19T20:17:23.762Z,60.17
2023-03-19T20:19:50.829Z,60.30
2023-03-19T20:22:17.543Z,60.32
2023-03-19T20:24:44.997Z,60.32
2023-03-19T20:27:20.148Z,60.88
2023-03-19T20:29:46.850Z,60.30
2023-03-19T20:32:33.370Z,60.98
2023-03-19T20:35:03.993Z,60.29
2023-03-19T20:37:30.910Z,60.46
2023-03-19T20:39:58.464Z,60.65
2023-03-19T20:42:26.184Z,60.56
2023-03-19T20:44:57.708Z,60.98
2023-03-19T20:47:25.746Z,60.73
2023-03-19T20:49:53.362Z,61.10
2023-03-19T20:52:20.337Z,61.12
2023-03-19T20:54:48.254Z,61.21
2023-03-19T20:57:24.995Z,61.73
2023-03-19T20:59:51.451Z,61.36
2023-03-19T21:02:20.852Z,61.69
2023-03-19T21:04:48.425Z,61.63
2023-03-19T21:07:35.263Z,62.10
2023-03-19T21:10:21.732Z,62.13
2023-03-19T21:12:48.194Z,61.45
2023-03-19T21:15:15.333Z,61.49
2023-03-19T21:17:42.214Z,61.71
2023-03-19T21:20:17.418Z,62.61
2023-03-19T21:22:46.472Z,62.08
2023-03-19T21:25:19.962Z,62.35
2023-03-19T21:27:51.061Z,61.93
2023-03-19T21:30:18.967Z,62.10
2023-03-19T21:32:45.782Z,61.94
2023-03-19T21:35:20.741Z,62.87
2023-03-19T21:37:48.354Z,62.60
2023-03-19T21:40:17.084Z,62.69
2023-03-19T21:42:46.400Z,62.67
2023-03-19T21:45:23.485Z,63.15
2023-03-19T21:47:50.067Z,62.49
2023-03-19T21:50:19.405Z,62.59
2023-03-19T21:52:58.742Z,62.55
2023-03-19T21:55:27.560Z,62.49
2023-03-19T21:57:57.380Z,62.83
2023-03-19T22:00:24.600Z,62.47
2023-03-19T22:02:51.225Z,62.37
2023-03-19T22:05:22.357Z,62.62
2023-03-19T22:07:49.445Z,62.33
2023-03-19T22:10:16.432Z,62.57
2023-03-19T22:12:44.317Z,62.85
2023-03-19T22:15:36.338Z,63.84
2023-03-19T22:18:11.984Z,63.79
2023-03-19T22:20:38.434Z,63.34
2023-03-19T22:23:04.973Z,63.49
2023-03-19T22:25:35.531Z,63.86
2023-03-19T22:28:16.391Z,64.33
2023-03-19T22:30:43.950Z,63.73
2023-03-19T22:33:19.448Z,64.39
2023-03-19T22:35:46.364Z,63.60
2023-03-19T22:38:12.935Z,63.49
2023-03-19T22:40:40.171Z,63.51
2023-03-19T22:43:16.420Z,64.82
2023-03-19T22:45:43.471Z,64.00
2023-03-19T22:48:14.903Z,64.77
2023-03-19T22:50:42.713Z,64.43
2023-03-19T22:53:29.932Z,65.33
2023-03-19T22:55:59.313Z,64.54
2023-03-19T22:58:25.842Z,64.46
2023-03-19T23:00:52.936Z,64.34
2023-03-19T23:03:22.628Z,64.64
2023-03-19T23:05:54.992Z,64.77
2023-03-19T23:08:22.794Z,64.27
2023-03-19T23:10:51.187Z,64.31
2023-03-19T23:13:17.756Z,64.34
2023-03-19T23:15:45.184Z,64.46
2023-03-19T23:18:21.453Z,65.30
2023-03-19T23:20:48.276Z,64.78
2023-03-19T23:23:21.111Z,65.45
2023-03-19T23:25:47.949Z,64.91
2023-03-19T23:28:20.813Z,65.68
2023-03-19T23:30:50.089Z,64.84
2023-03-19T23:33:18.268Z,64.84
2023-03-19T23:35:45.639Z,64.72
2023-03-19T23:38:12.839Z,64.60
2023-03-19T23:40:41.323Z,64.48
2023-03-19T23:43:25.114Z,64.98
2023-03-19T23:45:53.190Z,64.79
2023-03-19T23:48:22.931Z,64.86
2023-03-19T23:50:49.491Z,65.06
2023-03-19T23:53:24.512Z,66.11
2023-03-19T23:55:59.886Z,66.45
2023-03-19T23:58:47.748Z,66.79
